Time;durP1;ratioP1;P1;durP2;ratioP2;P2;SDS_P1;SDS_P2;PMS_P1;PMS_P2;Temp;Humidity;BMP_temperature;BMP_pressure;BME280_temperature;BME280_humidity;BME280_pressure;Samples;Min_cycle;Max_cycle;Signal;HPM_P1;HPM_P2
2022/05/15 00:01:53;;;;;;;37.78;9.55;;;;;;;;;;4983353;28;20045;-88
2022/05/15 00:04:26;;;;;;;37.10;9.80;;;;;;;;;;4963016;28;20038;-88
2022/05/15 00:06:52;;;;;;;39.53;10.98;;;;;;;;;;4969766;28;20034;-88
2022/05/15 00:09:18;;;;;;;32.67;9.88;;;;;;;;;;4963377;28;20669;-88
2022/05/15 00:11:44;;;;;;;30.40;9.52;;;;;;;;;;4968721;28;20031;-88
2022/05/15 00:14:10;;;;;;;30.38;10.10;;;;;;;;;;4956348;28;20031;-88
2022/05/15 00:16:36;;;;;;;34.70;9.70;;;;;;;;;;4970536;28;20278;-88
2022/05/15 00:19:02;;;;;;;34.20;8.73;;;;;;;;;;4963073;28;20062;-88
2022/05/15 00:21:28;;;;;;;33.38;8.50;;;;;;;;;;4969442;28;20054;-88
2022/05/15 00:23:54;;;;;;;41.58;9.02;;;;;;;;;;4969906;28;20050;-88
2022/05/15 00:26:20;;;;;;;46.40;10.15;;;;;;;;;;4969126;28;20152;-88
2022/05/15 00:28:46;;;;;;;29.92;9.85;;;;;;;;;;4969620;28;20405;-88
2022/05/15 00:31:12;;;;;;;50.65;11.60;;;;;;;;;;4956989;28;20030;-88
2022/05/15 00:33:39;;;;;;;36.50;8.82;;;;;;;;;;4966539;28;20489;-88
2022/05/15 00:36:05;;;;;;;39.28;10.20;;;;;;;;;;4967419;28;20056;-88
2022/05/15 00:38:31;;;;;;;44.65;11.30;;;;;;;;;;4965966;28;20042;-88
2022/05/15 00:40:57;;;;;;;39.28;10.13;;;;;;;;;;4968175;28;20037;-88
2022/05/15 00:43:42;;;;;;;50.13;11.30;;;;;;;;;;4971395;28;20490;-88
2022/05/15 00:46:09;;;;;;;34.47;9.80;;;;;;;;;;4981096;28;20034;-88
2022/05/15 00:48:35;;;;;;;50.42;10.10;;;;;;;;;;4982081;28;20410;-88
2022/05/15 00:51:04;;;;;;;35.22;9.93;;;;;;;;;;4979977;28;20471;-88
2022/05/15 00:53:31;;;;;;;41.63;9.93;;;;;;;;;;4968636;28;20027;-88
2022/05/15 00:55:59;;;;;;;36.97;9.93;;;;;;;;;;4965462;28;20092;-88
2022/05/15 00:58:24;;;;;;;42.55;9.30;;;;;;;;;;4983222;28;20030;-88
2022/05/15 01:00:51;;;;;;;46.03;9.25;;;;;;;;;;4964479;28;20421;-88
2022/05/15 01:03:18;;;;;;;36.53;8.55;;;;;;;;;;4982992;28;20034;-88
2022/05/15 01:05:47;;;;;;;25.52;7.88;;;;;;;;;;4968142;28;20499;-88
2022/05/15 01:08:13;;;;;;;37.67;9.38;;;;;;;;;;4966070;28;20038;-88
2022/05/15 01:10:41;;;;;;;37.00;9.00;;;;;;;;;;4968060;28;20063;-88
2022/05/15 01:13:08;;;;;;;38.50;9.52;;;;;;;;;;4969027;28;20121;-88
2022/05/15 01:15:36;;;;;;;42.22;9.13;;;;;;;;;;4967129;28;20481;-88
2022/05/15 01:18:02;;;;;;;36.13;8.63;;;;;;;;;;4970385;28;20046;-88
2022/05/15 01:20:30;;;;;;;36.03;8.77;;;;;;;;;;4970330;28;20045;-88
2022/05/15 01:22:56;;;;;;;28.10;8.63;;;;;;;;;;4967498;28;20445;-88
2022/05/15 01:25:24;;;;;;;33.40;8.73;;;;;;;;;;4969290;28;20606;-88
2022/05/15 01:27:54;;;;;;;32.70;8.00;;;;;;;;;;4987507;28;20398;-88
2022/05/15 01:30:20;;;;;;;38.67;9.77;;;;;;;;;;4989223;28;20634;-88
2022/05/15 01:32:46;;;;;;;29.13;8.48;;;;;;;;;;4986210;28;20125;-88
2022/05/15 01:35:13;;;;;;;36.80;7.72;;;;;;;;;;4975664;28;20058;-88
2022/05/15 01:37:39;;;;;;;45.55;8.25;;;;;;;;;;4970052;28;20034;-88
2022/05/15 01:40:06;;;;;;;38.25;8.75;;;;;;;;;;4967072;28;20057;-88
2022/05/15 01:42:32;;;;;;;27.67;7.05;;;;;;;;;;4969750;28;20026;-88
2022/05/15 01:44:58;;;;;;;42.03;7.50;;;;;;;;;;4969341;28;20458;-88
2022/05/15 01:47:24;;;;;;;44.67;8.10;;;;;;;;;;4965844;28;20049;-89
2022/05/15 01:49:50;;;;;;;33.72;7.78;;;;;;;;;;4967690;28;20035;-88
2022/05/15 01:52:16;;;;;;;29.35;8.02;;;;;;;;;;4964484;28;20026;-88
2022/05/15 01:54:42;;;;;;;34.13;7.72;;;;;;;;;;4965089;28;20120;-88
2022/05/15 01:57:08;;;;;;;36.65;7.55;;;;;;;;;;4966234;28;20026;-88
2022/05/15 01:59:34;;;;;;;36.08;8.38;;;;;;;;;;4985656;28;20034;-88
2022/05/15 02:02:00;;;;;;;29.95;8.50;;;;;;;;;;4962845;28;20030;-88
2022/05/15 02:04:26;;;;;;;39.90;8.43;;;;;;;;;;4964972;28;20500;-88
2022/05/15 02:06:52;;;;;;;30.70;8.18;;;;;;;;;;4966327;28;20097;-88
2022/05/15 02:09:18;;;;;;;31.75;8.27;;;;;;;;;;4968183;28;20367;-88
2022/05/15 02:11:44;;;;;;;35.78;8.40;;;;;;;;;;4971881;28;20089;-88
2022/05/15 02:14:11;;;;;;;37.83;7.70;;;;;;;;;;4966513;28;20081;-88
2022/05/15 02:16:37;;;;;;;31.25;8.93;;;;;;;;;;4962220;28;20018;-89
2022/05/15 02:19:03;;;;;;;46.80;9.60;;;;;;;;;;4972159;28;20080;-88
2022/05/15 02:21:30;;;;;;;33.15;8.10;;;;;;;;;;4968818;28;20077;-87
2022/05/15 02:23:57;;;;;;;35.35;8.20;;;;;;;;;;4968674;28;20121;-88
2022/05/15 02:26:23;;;;;;;42.50;9.00;;;;;;;;;;4962836;28;20535;-88
2022/05/15 02:28:49;;;;;;;31.40;8.00;;;;;;;;;;4982190;28;20089;-87
2022/05/15 02:31:15;;;;;;;37.65;9.27;;;;;;;;;;4968892;28;20027;-87
2022/05/15 02:33:41;;;;;;;32.40;7.93;;;;;;;;;;4956511;28;20078;-87
2022/05/15 02:36:08;;;;;;;40.00;8.30;;;;;;;;;;4966848;28;20089;-87
2022/05/15 02:38:34;;;;;;;22.88;6.78;;;;;;;;;;4968055;28;20054;-87
2022/05/15 02:41:00;;;;;;;39.42;7.75;;;;;;;;;;4986283;28;20085;-88
2022/05/15 02:43:26;;;;;;;45.13;8.10;;;;;;;;;;4968074;28;20019;-88
2022/05/15 02:45:52;;;;;;;31.60;8.15;;;;;;;;;;4968437;28;20807;-87
2022/05/15 02:51:03;;;;;;;32.15;7.15;;;;;;;;;;4983458;28;20604;-89
2022/05/15 02:53:29;;;;;;;30.23;7.38;;;;;;;;;;4963945;28;20130;-87
2022/05/15 02:55:55;;;;;;;32.42;8.77;;;;;;;;;;4966541;28;20121;-88
2022/05/15 02:58:21;;;;;;;35.00;8.38;;;;;;;;;;4962916;28;20371;-87
2022/05/15 03:00:47;;;;;;;30.58;6.95;;;;;;;;;;4967402;28;20045;-88
2022/05/15 03:03:13;;;;;;;32.58;8.13;;;;;;;;;;4981173;28;20062;-88
2022/05/15 03:05:39;;;;;;;36.53;7.53;;;;;;;;;;4981357;28;20477;-88
2022/05/15 03:08:05;;;;;;;30.05;8.57;;;;;;;;;;4982302;28;20037;-87
2022/05/15 03:10:31;;;;;;;32.80;7.30;;;;;;;;;;4982773;28;20045;-88
2022/05/15 03:12:57;;;;;;;34.45;8.85;;;;;;;;;;4967159;28;20030;-87
2022/05/15 03:15:23;;;;;;;33.03;7.38;;;;;;;;;;4963036;28;20130;-87
2022/05/15 03:17:49;;;;;;;29.02;7.15;;;;;;;;;;4967994;28;20063;-88
2022/05/15 03:20:16;;;;;;;28.08;7.05;;;;;;;;;;4965744;28;20050;-88
2022/05/15 03:22:42;;;;;;;28.17;7.80;;;;;;;;;;4967871;28;20100;-88
2022/05/15 03:25:09;;;;;;;27.17;7.15;;;;;;;;;;4953972;28;20031;-89
2022/05/15 03:27:35;;;;;;;24.90;6.80;;;;;;;;;;4977044;28;20125;-88
2022/05/15 03:30:01;;;;;;;22.05;6.88;;;;;;;;;;4954753;28;20030;-88
2022/05/15 03:32:27;;;;;;;34.90;6.93;;;;;;;;;;4979039;28;20122;-87
2022/05/15 03:34:53;;;;;;;26.70;7.28;;;;;;;;;;4959163;28;20065;-88
2022/05/15 03:37:19;;;;;;;26.83;6.75;;;;;;;;;;4966896;28;20096;-88
2022/05/15 03:39:45;;;;;;;33.40;8.23;;;;;;;;;;4966729;28;20026;-87
2022/05/15 03:42:19;;;;;;;41.95;8.00;;;;;;;;;;4966802;28;20058;-88
2022/05/15 03:44:45;;;;;;;38.13;8.20;;;;;;;;;;4964400;28;20098;-88
2022/05/15 03:47:11;;;;;;;33.40;6.80;;;;;;;;;;4980623;28;20030;-88
2022/05/15 03:49:37;;;;;;;32.05;7.63;;;;;;;;;;4967611;28;20030;-88
2022/05/15 03:52:03;;;;;;;43.90;7.80;;;;;;;;;;4986988;28;20049;-87
2022/05/15 03:54:29;;;;;;;28.80;7.80;;;;;;;;;;4965095;28;20394;-88
2022/05/15 03:56:55;;;;;;;28.05;8.50;;;;;;;;;;4971682;28;20026;-88
2022/05/15 03:59:23;;;;;;;30.27;7.45;;;;;;;;;;4966330;28;20089;-88
2022/05/15 04:01:50;;;;;;;46.03;8.15;;;;;;;;;;4972280;28;20042;-88
2022/05/15 04:04:16;;;;;;;34.05;7.90;;;;;;;;;;4980242;28;20037;-88
2022/05/15 04:06:42;;;;;;;34.72;7.43;;;;;;;;;;4968364;28;20088;-88
2022/05/15 04:09:08;;;;;;;30.10;7.50;;;;;;;;;;4963541;28;20042;-88
2022/05/15 04:11:34;;;;;;;37.88;8.18;;;;;;;;;;4969671;28;20030;-88
2022/05/15 04:14:00;;;;;;;32.15;7.30;;;;;;;;;;4960616;28;20053;-88
2022/05/15 04:16:27;;;;;;;37.35;7.15;;;;;;;;;;4960119;28;20026;-88
2022/05/15 04:18:55;;;;;;;35.60;8.10;;;;;;;;;;4963840;28;20482;-88
2022/05/15 04:21:21;;;;;;;24.98;7.65;;;;;;;;;;4966966;28;20035;-88
2022/05/15 04:23:47;;;;;;;41.35;7.15;;;;;;;;;;4963217;28;20066;-88
2022/05/15 04:26:13;;;;;;;35.95;7.88;;;;;;;;;;4968703;28;20041;-88
2022/05/15 04:28:39;;;;;;;40.75;7.32;;;;;;;;;;4967028;28;20038;-88
2022/05/15 04:31:05;;;;;;;28.95;7.55;;;;;;;;;;4978330;28;20050;-88
2022/05/15 04:33:31;;;;;;;40.80;8.90;;;;;;;;;;4979759;28;20523;-88
2022/05/15 04:35:58;;;;;;;36.30;9.05;;;;;;;;;;4968087;28;20054;-88
2022/05/15 04:38:24;;;;;;;27.45;8.68;;;;;;;;;;4968894;28;20045;-88
2022/05/15 04:40:50;;;;;;;42.42;8.45;;;;;;;;;;4973969;28;20022;-88
2022/05/15 04:43:16;;;;;;;35.55;8.63;;;;;;;;;;4974043;28;20049;-87
2022/05/15 04:45:42;;;;;;;31.25;8.52;;;;;;;;;;4972059;28;20128;-88
2022/05/15 04:48:11;;;;;;;34.60;8.52;;;;;;;;;;4969015;28;20073;-88
2022/05/15 04:50:37;;;;;;;40.92;9.23;;;;;;;;;;4970423;28;20478;-88
2022/05/15 04:53:04;;;;;;;28.70;7.32;;;;;;;;;;4966283;28;20088;-88
2022/05/15 04:55:30;;;;;;;35.22;7.50;;;;;;;;;;4985089;28;20034;-88
2022/05/15 04:57:58;;;;;;;26.05;6.85;;;;;;;;;;4965478;28;20546;-88
2022/05/15 05:00:24;;;;;;;41.03;9.50;;;;;;;;;;4969606;28;20170;-88
2022/05/15 05:02:50;;;;;;;32.00;7.70;;;;;;;;;;4962058;28;20526;-88
2022/05/15 05:05:16;;;;;;;28.90;7.28;;;;;;;;;;4969308;28;20387;-88
2022/05/15 05:07:42;;;;;;;32.70;7.53;;;;;;;;;;4964968;28;20389;-88
2022/05/15 05:10:09;;;;;;;39.58;8.73;;;;;;;;;;4969271;28;20031;-88
2022/05/15 05:12:36;;;;;;;23.50;7.22;;;;;;;;;;4976856;28;20161;-88
2022/05/15 05:15:02;;;;;;;35.58;7.63;;;;;;;;;;4966898;28;20040;-88
2022/05/15 05:17:29;;;;;;;36.58;7.93;;;;;;;;;;4966038;28;20505;-88
2022/05/15 05:20:01;;;;;;;37.45;8.50;;;;;;;;;;4965529;28;20082;-88
2022/05/15 05:22:34;;;;;;;32.05;7.80;;;;;;;;;;4967072;28;20034;-87
2022/05/15 05:25:00;;;;;;;44.10;9.57;;;;;;;;;;4970939;28;20042;-88
2022/05/15 05:27:26;;;;;;;27.27;7.13;;;;;;;;;;4969720;28;20453;-88
2022/05/15 05:29:53;;;;;;;26.55;6.30;;;;;;;;;;4969559;28;20035;-88
2022/05/15 05:32:19;;;;;;;33.10;6.57;;;;;;;;;;4965189;28;20637;-88
2022/05/15 05:34:45;;;;;;;26.95;6.20;;;;;;;;;;4958988;28;20035;-88
2022/05/15 05:37:11;;;;;;;29.42;5.47;;;;;;;;;;4970585;28;20093;-88
2022/05/15 05:39:37;;;;;;;31.48;6.90;;;;;;;;;;4965797;28;20502;-87
2022/05/15 05:42:03;;;;;;;31.73;6.15;;;;;;;;;;4965659;28;20080;-88
2022/05/15 05:44:29;;;;;;;25.90;7.00;;;;;;;;;;4967716;28;20102;-87
2022/05/15 05:46:55;;;;;;;33.42;6.57;;;;;;;;;;4964986;28;20030;-88
2022/05/15 05:49:21;;;;;;;22.80;5.40;;;;;;;;;;4964597;28;20049;-88
2022/05/15 05:51:47;;;;;;;31.55;7.40;;;;;;;;;;4968172;28;20026;-88
2022/05/15 05:54:15;;;;;;;38.45;6.22;;;;;;;;;;4954051;28;20031;-88
2022/05/15 05:56:41;;;;;;;30.00;7.35;;;;;;;;;;4985785;28;20061;-88
2022/05/15 05:59:07;;;;;;;30.75;6.68;;;;;;;;;;4969510;28;20069;-88
2022/05/15 06:01:33;;;;;;;23.05;6.47;;;;;;;;;;4982153;28;20033;-88
2022/05/15 06:06:44;;;;;;;18.80;6.28;;;;;;;;;;4983373;28;20077;-88
2022/05/15 06:09:10;;;;;;;27.88;6.28;;;;;;;;;;4970268;28;20033;-88
2022/05/15 06:11:36;;;;;;;25.60;5.97;;;;;;;;;;4963262;28;20057;-87
2022/05/15 06:14:02;;;;;;;23.92;5.68;;;;;;;;;;4968583;28;20058;-88
2022/05/15 06:16:28;;;;;;;31.08;6.35;;;;;;;;;;4986349;28;20482;-88
2022/05/15 06:18:54;;;;;;;23.08;5.85;;;;;;;;;;4967436;28;20042;-88
2022/05/15 06:21:20;;;;;;;22.95;5.93;;;;;;;;;;4961712;28;20394;-88
2022/05/15 06:23:46;;;;;;;27.48;5.90;;;;;;;;;;4964323;28;20038;-88
2022/05/15 06:26:12;;;;;;;31.95;6.43;;;;;;;;;;4962737;28;20031;-88
2022/05/15 06:28:38;;;;;;;34.97;6.85;;;;;;;;;;4968883;28;20076;-88
2022/05/15 06:31:04;;;;;;;26.95;6.22;;;;;;;;;;4965049;28;20043;-88
2022/05/15 06:33:30;;;;;;;26.85;6.15;;;;;;;;;;4985656;28;20401;-88
2022/05/15 06:35:58;;;;;;;23.63;5.82;;;;;;;;;;4964231;28;20057;-89
2022/05/15 06:38:24;;;;;;;24.65;5.40;;;;;;;;;;4969750;28;20545;-89
2022/05/15 06:40:50;;;;;;;24.73;5.43;;;;;;;;;;4964972;28;20158;-88
2022/05/15 06:43:16;;;;;;;20.17;5.38;;;;;;;;;;4969646;28;20062;-88
2022/05/15 06:45:42;;;;;;;22.88;5.32;;;;;;;;;;4974931;28;20085;-88
2022/05/15 06:48:09;;;;;;;26.48;4.63;;;;;;;;;;4966529;28;20030;-88
2022/05/15 06:50:35;;;;;;;24.95;5.65;;;;;;;;;;4967240;28;20649;-88
2022/05/15 06:53:01;;;;;;;27.75;5.47;;;;;;;;;;4966281;28;20038;-88
2022/05/15 06:55:27;;;;;;;28.77;5.75;;;;;;;;;;4980032;28;20022;-88
2022/05/15 06:57:53;;;;;;;20.92;4.68;;;;;;;;;;4959736;28;20069;-88
2022/05/15 07:00:25;;;;;;;19.25;5.03;;;;;;;;;;4987119;28;20065;-88
2022/05/15 07:02:52;;;;;;;23.60;4.95;;;;;;;;;;4968619;28;20162;-88
2022/05/15 07:05:21;;;;;;;20.80;5.25;;;;;;;;;;4981329;28;20042;-88
2022/05/15 07:07:47;;;;;;;31.67;5.35;;;;;;;;;;4965615;28;20513;-88
2022/05/15 07:10:13;;;;;;;18.73;5.45;;;;;;;;;;4978497;28;20051;-88
2022/05/15 07:12:40;;;;;;;23.73;5.22;;;;;;;;;;4967522;28;20568;-88
2022/05/15 07:15:06;;;;;;;23.58;4.90;;;;;;;;;;4968100;28;20037;-88
2022/05/15 07:17:32;;;;;;;26.88;5.50;;;;;;;;;;4966997;28;20521;-88
2022/05/15 07:19:58;;;;;;;26.02;4.88;;;;;;;;;;4961062;28;20384;-88
2022/05/15 07:22:24;;;;;;;26.08;5.32;;;;;;;;;;4966467;28;20096;-87
2022/05/15 07:24:50;;;;;;;19.23;4.38;;;;;;;;;;4983758;28;20500;-87
2022/05/15 07:27:17;;;;;;;16.88;4.13;;;;;;;;;;4966093;28;20047;-88
2022/05/15 07:29:43;;;;;;;27.52;4.50;;;;;;;;;;4958570;28;20050;-88
2022/05/15 07:32:10;;;;;;;17.17;4.13;;;;;;;;;;4968815;28;20474;-87
2022/05/15 07:34:39;;;;;;;17.30;4.93;;;;;;;;;;4981896;28;20041;-88
2022/05/15 07:37:05;;;;;;;19.65;3.92;;;;;;;;;;4964976;28;20117;-88
2022/05/15 07:39:31;;;;;;;14.52;4.45;;;;;;;;;;4966761;28;20632;-87
2022/05/15 07:41:57;;;;;;;18.52;4.60;;;;;;;;;;4970035;28;20023;-88
2022/05/15 07:44:23;;;;;;;17.95;5.28;;;;;;;;;;4961322;28;20530;-88
2022/05/15 07:46:49;;;;;;;28.27;5.95;;;;;;;;;;4965399;28;20129;-88
2022/05/15 07:49:16;;;;;;;15.50;3.67;;;;;;;;;;4975483;28;20038;-88
2022/05/15 07:51:44;;;;;;;15.13;4.03;;;;;;;;;;4968402;28;20046;-88
2022/05/15 07:54:15;;;;;;;17.88;4.65;;;;;;;;;;4964980;28;20042;-88
2022/05/15 07:56:41;;;;;;;23.52;4.13;;;;;;;;;;4978607;28;20371;-88
2022/05/15 07:59:07;;;;;;;21.77;4.78;;;;;;;;;;4969905;28;20026;-89
2022/05/15 08:01:34;;;;;;;15.40;4.80;;;;;;;;;;4966670;28;20026;-88
2022/05/15 08:04:00;;;;;;;18.30;4.18;;;;;;;;;;4958888;28;20512;-88
2022/05/15 08:09:11;;;;;;;23.25;4.07;;;;;;;;;;4980992;28;20045;-88
2022/05/15 08:11:37;;;;;;;17.75;4.00;;;;;;;;;;4966364;28;20038;-88
2022/05/15 08:14:04;;;;;;;13.85;3.25;;;;;;;;;;4961750;28;20100;-88
2022/05/15 08:16:31;;;;;;;18.50;4.00;;;;;;;;;;4977424;28;20031;-88
2022/05/15 08:24:27;;;;;;;14.75;4.05;;;;;;;;;;4988354;28;20122;-88
2022/05/15 08:26:53;;;;;;;14.90;3.50;;;;;;;;;;4982188;28;20552;-88
2022/05/15 08:29:19;;;;;;;18.60;4.07;;;;;;;;;;4961493;28;20042;-88
2022/05/15 08:31:46;;;;;;;14.77;4.22;;;;;;;;;;4969682;28;20505;-88
2022/05/15 08:34:12;;;;;;;15.70;3.50;;;;;;;;;;4969273;28;20037;-88
2022/05/15 08:36:41;;;;;;;24.73;5.05;;;;;;;;;;4978349;28;20124;-87
2022/05/15 08:39:07;;;;;;;14.35;3.65;;;;;;;;;;4981633;28;20490;-87
2022/05/15 08:41:34;;;;;;;12.93;3.83;;;;;;;;;;4965686;28;20389;-87
2022/05/15 08:44:14;;;;;;;13.50;3.58;;;;;;;;;;4968919;28;20714;-87
2022/05/15 08:46:41;;;;;;;11.10;3.55;;;;;;;;;;4970118;28;20034;-88
2022/05/15 08:49:07;;;;;;;12.10;4.45;;;;;;;;;;4960091;28;20723;-88
2022/05/15 08:51:33;;;;;;;15.40;4.32;;;;;;;;;;4970109;28;20037;-88
2022/05/15 08:54:01;;;;;;;12.98;3.60;;;;;;;;;;4964671;28;20039;-88
2022/05/15 08:56:27;;;;;;;18.95;4.35;;;;;;;;;;4976450;28;20547;-88
2022/05/15 08:58:55;;;;;;;18.45;4.40;;;;;;;;;;4969007;28;20078;-88
2022/05/15 09:01:24;;;;;;;12.57;3.60;;;;;;;;;;4964368;28;20117;-89
2022/05/15 09:03:50;;;;;;;11.60;3.63;;;;;;;;;;4967671;28;20068;-89
2022/05/15 09:06:24;;;;;;;21.50;5.00;;;;;;;;;;4984322;28;20027;-88
2022/05/15 09:08:57;;;;;;;14.20;3.72;;;;;;;;;;4986912;28;20470;-88
2022/05/15 09:11:36;;;;;;;10.88;3.13;;;;;;;;;;4981264;28;20089;-89
2022/05/15 09:14:25;;;;;;;14.15;3.92;;;;;;;;;;4965869;28;20045;-88
2022/05/15 09:17:14;;;;;;;15.85;3.58;;;;;;;;;;4937547;28;20073;-88
2022/05/15 09:19:40;;;;;;;12.05;4.07;;;;;;;;;;4934651;28;20096;-89
2022/05/15 09:22:07;;;;;;;14.02;4.05;;;;;;;;;;4962880;28;20025;-89
2022/05/15 09:24:48;;;;;;;11.48;3.58;;;;;;;;;;4967044;28;20050;-88
2022/05/15 09:27:16;;;;;;;10.18;3.97;;;;;;;;;;4981218;28;20031;-89
2022/05/15 09:29:43;;;;;;;15.02;4.03;;;;;;;;;;4967816;28;20037;-88
2022/05/15 09:32:28;;;;;;;15.63;3.92;;;;;;;;;;4981303;28;20031;-89
2022/05/15 09:34:56;;;;;;;19.50;4.82;;;;;;;;;;4979524;28;20031;-88
2022/05/15 09:40:15;;;;;;;14.35;4.07;;;;;;;;;;4978963;28;20037;-89
2022/05/15 09:45:36;;;;;;;9.93;3.35;;;;;;;;;;4984369;28;20049;-89
2022/05/15 09:48:04;;;;;;;16.63;4.53;;;;;;;;;;4978264;28;20463;-89
2022/05/15 09:50:40;;;;;;;9.90;3.33;;;;;;;;;;4965726;28;20030;-89
2022/05/15 09:53:32;;;;;;;11.45;4.40;;;;;;;;;;4979297;28;20036;-89
2022/05/15 09:56:00;;;;;;;15.68;3.97;;;;;;;;;;4961506;28;20039;-89
2022/05/15 09:58:26;;;;;;;15.80;4.13;;;;;;;;;;4964814;28;20018;-89
2022/05/15 10:01:09;;;;;;;14.85;4.47;;;;;;;;;;4975028;28;20031;-89
2022/05/15 10:03:35;;;;;;;17.85;3.80;;;;;;;;;;4970116;28;20470;-89
2022/05/15 10:06:06;;;;;;;16.02;4.30;;;;;;;;;;4965931;28;20058;-89
2022/05/15 10:08:33;;;;;;;14.27;3.72;;;;;;;;;;4970376;28;20505;-89
2022/05/15 10:11:01;;;;;;;13.75;3.13;;;;;;;;;;4961434;28;20639;-89
2022/05/15 10:13:33;;;;;;;12.38;3.67;;;;;;;;;;4961534;28;20495;-89
2022/05/15 10:16:02;;;;;;;17.25;3.63;;;;;;;;;;4967402;28;20458;-89
2022/05/15 10:18:30;;;;;;;18.98;4.68;;;;;;;;;;4966338;28;20635;-89
2022/05/15 10:20:57;;;;;;;14.75;4.60;;;;;;;;;;4968038;28;20490;-89
2022/05/15 10:23:30;;;;;;;16.40;3.50;;;;;;;;;;4964945;28;20034;-89
2022/05/15 10:26:01;;;;;;;11.00;3.40;;;;;;;;;;4964977;28;20031;-89
2022/05/15 10:28:36;;;;;;;14.63;3.70;;;;;;;;;;4958302;28;20049;-89
2022/05/15 10:31:14;;;;;;;11.27;3.22;;;;;;;;;;4974803;28;20494;-89
2022/05/15 10:33:54;;;;;;;13.48;3.30;;;;;;;;;;4949233;28;20046;-89
2022/05/15 10:36:39;;;;;;;12.23;3.55;;;;;;;;;;4965159;28;20085;-89
2022/05/15 10:39:05;;;;;;;10.07;3.25;;;;;;;;;;4968092;28;20056;-89
2022/05/15 10:41:56;;;;;;;14.48;4.03;;;;;;;;;;4976842;28;20466;-89
2022/05/15 10:44:30;;;;;;;13.15;4.20;;;;;;;;;;4962010;28;20388;-89
2022/05/15 10:47:00;;;;;;;18.55;4.30;;;;;;;;;;4963615;28;20069;-89
2022/05/15 10:49:26;;;;;;;11.07;3.60;;;;;;;;;;4964985;28;20391;-89
2022/05/15 10:52:11;;;;;;;12.52;3.20;;;;;;;;;;4961820;28;20030;-89
2022/05/15 10:58:03;;;;;;;12.48;3.65;;;;;;;;;;4985176;28;20060;-89
2022/05/15 11:00:49;;;;;;;15.82;4.07;;;;;;;;;;4965872;28;20406;-89
2022/05/15 11:03:34;;;;;;;12.90;3.63;;;;;;;;;;4959441;28;20043;-89
2022/05/15 11:06:13;;;;;;;14.80;3.55;;;;;;;;;;4964260;28;20117;-89
2022/05/15 11:08:49;;;;;;;13.30;3.78;;;;;;;;;;4979248;28;20038;-89
2022/05/15 11:11:29;;;;;;;13.07;3.60;;;;;;;;;;4969159;28;20045;-89
2022/05/15 11:14:00;;;;;;;11.30;3.20;;;;;;;;;;4981517;28;20030;-89
2022/05/15 11:16:29;;;;;;;12.27;3.45;;;;;;;;;;4957947;28;20031;-90
2022/05/15 11:19:13;;;;;;;12.82;3.30;;;;;;;;;;4955613;28;20034;-89
2022/05/15 11:22:02;;;;;;;13.60;3.45;;;;;;;;;;4966663;28;20457;-89
2022/05/15 11:24:40;;;;;;;8.95;3.13;;;;;;;;;;4975281;28;20038;-89
2022/05/15 11:27:27;;;;;;;9.85;3.72;;;;;;;;;;4965587;28;20470;-89
2022/05/15 11:29:53;;;;;;;10.32;2.88;;;;;;;;;;4980456;28;20070;-89
2022/05/15 11:32:43;;;;;;;8.80;3.05;;;;;;;;;;4965255;28;21300;-89
2022/05/15 11:35:18;;;;;;;13.18;5.38;;;;;;;;;;4964720;28;20050;-89
2022/05/15 11:38:00;;;;;;;10.15;2.92;;;;;;;;;;4980983;28;20113;-89
2022/05/15 11:40:37;;;;;;;7.82;2.80;;;;;;;;;;4977318;28;20033;-90
2022/05/15 11:43:22;;;;;;;7.95;3.00;;;;;;;;;;4965299;28;20430;-88
2022/05/15 11:45:49;;;;;;;17.37;4.07;;;;;;;;;;4955852;28;20041;-89
2022/05/15 11:48:27;;;;;;;9.52;3.15;;;;;;;;;;4963936;28;20121;-88
2022/05/15 11:50:53;;;;;;;8.07;2.60;;;;;;;;;;4965845;28;20022;-89
2022/05/15 11:53:27;;;;;;;12.93;3.03;;;;;;;;;;4963649;28;20647;-89
2022/05/15 11:55:53;;;;;;;8.10;3.00;;;;;;;;;;4955028;28;20545;-89
2022/05/15 11:58:26;;;;;;;7.13;2.50;;;;;;;;;;4964373;28;20486;-89
2022/05/15 12:01:00;;;;;;;9.90;2.83;;;;;;;;;;4966783;28;20032;-89
2022/05/15 12:03:44;;;;;;;13.10;3.97;;;;;;;;;;4978290;28;20126;-89
2022/05/15 12:06:12;;;;;;;9.95;2.70;;;;;;;;;;4962780;28;20030;-88
2022/05/15 12:08:39;;;;;;;11.88;4.35;;;;;;;;;;4970849;28;20026;-88
2022/05/15 12:11:23;;;;;;;7.53;2.55;;;;;;;;;;4967134;28;20041;-89
2022/05/15 12:13:49;;;;;;;7.87;2.30;;;;;;;;;;4964243;28;20470;-89
2022/05/15 12:16:21;;;;;;;9.77;3.08;;;;;;;;;;4964252;28;20035;-89
2022/05/15 12:18:53;;;;;;;11.75;3.08;;;;;;;;;;4964913;28;20049;-89
2022/05/15 12:21:23;;;;;;;11.73;3.63;;;;;;;;;;4962811;28;20062;-89
2022/05/15 12:26:40;;;;;;;8.18;2.67;;;;;;;;;;4989471;28;20521;-89
2022/05/15 12:29:10;;;;;;;8.80;2.72;;;;;;;;;;4978938;28;20034;-89
2022/05/15 12:31:41;;;;;;;8.32;3.00;;;;;;;;;;4962595;28;20037;-89
2022/05/15 12:34:28;;;;;;;8.27;2.67;;;;;;;;;;4961371;28;20108;-89
2022/05/15 12:36:56;;;;;;;13.27;3.55;;;;;;;;;;4969106;28;20168;-89
2022/05/15 12:39:24;;;;;;;6.72;2.88;;;;;;;;;;4964468;28;20121;-89
2022/05/15 12:41:50;;;;;;;15.80;3.45;;;;;;;;;;4987137;28;20490;-89
2022/05/15 12:44:27;;;;;;;9.45;2.88;;;;;;;;;;4971291;28;20482;-89
2022/05/15 12:46:54;;;;;;;14.38;2.50;;;;;;;;;;4991331;28;20034;-89
2022/05/15 12:49:31;;;;;;;7.85;2.90;;;;;;;;;;4983235;28;20434;-89
2022/05/15 12:52:08;;;;;;;6.88;2.53;;;;;;;;;;4967571;28;20037;-89
2022/05/15 12:54:35;;;;;;;9.65;3.28;;;;;;;;;;4966043;28;20026;-88
2022/05/15 12:57:02;;;;;;;11.60;3.35;;;;;;;;;;4967387;28;20038;-89
2022/05/15 12:59:29;;;;;;;8.40;2.63;;;;;;;;;;4965625;28;20030;-89
2022/05/15 13:01:55;;;;;;;8.02;2.65;;;;;;;;;;4967406;28;20553;-89
2022/05/15 13:04:26;;;;;;;7.85;3.03;;;;;;;;;;4984922;28;20134;-89
2022/05/15 13:06:57;;;;;;;7.97;2.75;;;;;;;;;;4967062;28;20529;-89
2022/05/15 13:09:24;;;;;;;8.35;3.45;;;;;;;;;;4980917;28;20030;-89
2022/05/15 13:11:52;;;;;;;15.00;3.45;;;;;;;;;;4967930;28;20034;-89
2022/05/15 13:14:20;;;;;;;13.60;4.40;;;;;;;;;;4968689;28;20033;-89
2022/05/15 13:16:49;;;;;;;8.05;2.95;;;;;;;;;;4972534;28;20451;-89
2022/05/15 13:19:18;;;;;;;8.55;2.63;;;;;;;;;;4975282;28;20026;-89
2022/05/15 13:21:47;;;;;;;16.40;2.95;;;;;;;;;;4965846;28;20133;-89
2022/05/15 13:24:15;;;;;;;9.60;2.95;;;;;;;;;;4982464;28;20526;-89
2022/05/15 13:26:43;;;;;;;8.20;3.20;;;;;;;;;;4962377;28;20172;-89
2022/05/15 13:29:10;;;;;;;11.05;2.85;;;;;;;;;;4987072;28;20042;-88
2022/05/15 13:31:37;;;;;;;11.82;3.30;;;;;;;;;;4987759;28;20046;-89
2022/05/15 13:34:05;;;;;;;10.43;2.80;;;;;;;;;;4979896;28;20030;-89
2022/05/15 13:36:31;;;;;;;10.15;3.15;;;;;;;;;;4964198;28;20054;-88
2022/05/15 13:44:31;;;;;;;11.13;2.58;;;;;;;;;;4981757;28;20506;-89
2022/05/15 13:47:07;;;;;;;14.48;3.28;;;;;;;;;;4968957;28;20394;-89
2022/05/15 13:49:53;;;;;;;10.05;3.22;;;;;;;;;;4982239;28;20026;-88
2022/05/15 13:52:40;;;;;;;11.82;3.13;;;;;;;;;;4979678;28;20030;-89
2022/05/15 13:55:13;;;;;;;9.88;3.22;;;;;;;;;;4968758;28;20371;-89
2022/05/15 13:57:54;;;;;;;10.60;3.08;;;;;;;;;;4979920;28;20026;-89
2022/05/15 14:00:31;;;;;;;11.88;3.53;;;;;;;;;;4970342;28;20533;-89
2022/05/15 14:02:59;;;;;;;7.60;3.42;;;;;;;;;;4964681;28;20450;-88
2022/05/15 14:05:25;;;;;;;13.50;3.80;;;;;;;;;;4965468;28;20027;-89
2022/05/15 14:07:52;;;;;;;14.07;3.00;;;;;;;;;;4962148;28;20035;-89
2022/05/15 14:10:20;;;;;;;11.50;3.05;;;;;;;;;;4970321;28;20122;-88
2022/05/15 14:12:50;;;;;;;9.73;3.05;;;;;;;;;;4965508;28;20039;-89
2022/05/15 14:15:35;;;;;;;12.95;4.18;;;;;;;;;;4985074;28;20025;-89
2022/05/15 14:18:03;;;;;;;12.45;3.42;;;;;;;;;;4984154;28;20473;-88
2022/05/15 14:20:41;;;;;;;8.20;3.22;;;;;;;;;;4965982;28;20129;-89
2022/05/15 14:23:14;;;;;;;18.98;3.40;;;;;;;;;;4979973;28;20726;-89
2022/05/15 14:25:44;;;;;;;9.93;3.17;;;;;;;;;;4980453;28;20034;-89
2022/05/15 14:28:13;;;;;;;8.95;4.63;;;;;;;;;;4969524;28;20280;-90
2022/05/15 14:30:39;;;;;;;13.90;5.20;;;;;;;;;;4966974;28;20035;-89
2022/05/15 14:33:06;;;;;;;18.45;5.30;;;;;;;;;;4965247;28;20056;-89
2022/05/15 14:35:56;;;;;;;15.38;6.05;;;;;;;;;;4981038;28;20033;-89
2022/05/15 14:38:22;;;;;;;11.80;3.35;;;;;;;;;;4958093;28;20060;-89
2022/05/15 14:40:48;;;;;;;19.08;4.45;;;;;;;;;;4963522;28;20022;-89
2022/05/15 14:43:14;;;;;;;12.13;3.67;;;;;;;;;;4962849;28;20040;-88
2022/05/15 14:45:44;;;;;;;12.73;3.47;;;;;;;;;;4967185;28;22125;-89
2022/05/15 14:48:13;;;;;;;10.20;3.72;;;;;;;;;;4964886;28;20771;-89
2022/05/15 14:50:39;;;;;;;13.95;5.38;;;;;;;;;;4965262;28;20482;-89
2022/05/15 14:53:06;;;;;;;16.25;4.63;;;;;;;;;;4968709;28;20045;-89
2022/05/15 14:58:18;;;;;;;15.65;4.18;;;;;;;;;;4976600;28;20456;-89
2022/05/15 15:00:44;;;;;;;13.05;3.95;;;;;;;;;;4986272;28;20512;-89
2022/05/15 15:03:11;;;;;;;11.18;4.57;;;;;;;;;;4963910;28;20035;-89
2022/05/15 15:05:44;;;;;;;10.07;4.25;;;;;;;;;;4964952;28;20383;-88
2022/05/15 15:08:18;;;;;;;14.52;4.05;;;;;;;;;;4978590;28;20791;-88
2022/05/15 15:10:44;;;;;;;13.13;4.25;;;;;;;;;;4980800;28;20036;-89
2022/05/15 15:13:11;;;;;;;13.95;4.05;;;;;;;;;;4980878;28;20059;-88
2022/05/15 15:15:38;;;;;;;11.95;5.20;;;;;;;;;;4962530;28;20089;-88